sensor_id;sensor_type;location;lat;lon;timestamp;pressure;altitude;pressure_sealevel;temperature;humidity
818;BME280;391;51.052;6.954;2023-02-22T00:02:00;100854.53;;;7.37;100.00
818;BME280;391;51.052;6.954;2023-02-22T00:04:14;100855.22;;;7.33;100.00
818;BME280;391;51.052;6.954;2023-02-22T00:06:21;100849.06;;;7.31;100.00
818;BME280;391;51.052;6.954;2023-02-22T00:08:29;100843.13;;;7.34;100.00
818;BME280;391;51.052;6.954;2023-02-22T00:10:33;100856.19;;;7.35;100.00
818;BME280;391;51.052;6.954;2023-02-22T00:12:40;100848.19;;;7.31;100.00
818;BME280;391;51.052;6.954;2023-02-22T00:14:43;100847.88;;;7.23;100.00
818;BME280;391;51.052;6.954;2023-02-22T00:16:47;100847.47;;;7.14;100.00
818;BME280;391;51.052;6.954;2023-02-22T00:18:51;100845.59;;;7.12;100.00
818;BME280;391;51.052;6.954;2023-02-22T00:20:56;100848.81;;;7.06;100.00
818;BME280;391;51.052;6.954;2023-02-22T00:23:01;100849.50;;;7.02;100.00
818;BME280;391;51.052;6.954;2023-02-22T00:25:09;100844.94;;;6.97;100.00
818;BME280;391;51.052;6.954;2023-02-22T00:27:13;100836.09;;;6.91;100.00
818;BME280;391;51.052;6.954;2023-02-22T00:29:17;100833.81;;;6.99;100.00
818;BME280;391;51.052;6.954;2023-02-22T00:31:21;100843.44;;;7.02;100.00
818;BME280;391;51.052;6.954;2023-02-22T00:33:24;100792.22;;;6.77;100.00
818;BME280;391;51.052;6.954;2023-02-22T00:35:29;100833.00;;;7.00;100.00
818;BME280;391;51.052;6.954;2023-02-22T00:37:32;100841.84;;;7.05;100.00
818;BME280;391;51.052;6.954;2023-02-22T00:39:36;100835.09;;;6.89;100.00
818;BME280;391;51.052;6.954;2023-02-22T00:41:41;100829.06;;;6.89;100.00
818;BME280;391;51.052;6.954;2023-02-22T00:43:45;100828.97;;;6.87;100.00
818;BME280;391;51.052;6.954;2023-02-22T00:45:50;100829.78;;;6.86;100.00
818;BME280;391;51.052;6.954;2023-02-22T00:47:54;100831.72;;;6.90;100.00
818;BME280;391;51.052;6.954;2023-02-22T00:49:57;100827.81;;;7.00;100.00
818;BME280;391;51.052;6.954;2023-02-22T00:52:01;100823.13;;;7.11;100.00
818;BME280;391;51.052;6.954;2023-02-22T00:54:06;100824.13;;;7.14;100.00
818;BME280;391;51.052;6.954;2023-02-22T00:56:09;100828.56;;;7.17;100.00
818;BME280;391;51.052;6.954;2023-02-22T00:58:14;100825.16;;;7.18;100.00
818;BME280;391;51.052;6.954;2023-02-22T01:00:20;100820.16;;;7.22;100.00
818;BME280;391;51.052;6.954;2023-02-22T01:02:24;100815.22;;;7.08;100.00
818;BME280;391;51.052;6.954;2023-02-22T01:04:27;100815.53;;;6.96;100.00
818;BME280;391;51.052;6.954;2023-02-22T01:06:31;100816.09;;;6.89;100.00
818;BME280;391;51.052;6.954;2023-02-22T01:08:35;100789.63;;;6.77;100.00
818;BME280;391;51.052;6.954;2023-02-22T01:10:38;100810.84;;;6.87;100.00
818;BME280;391;51.052;6.954;2023-02-22T01:12:42;100756.38;;;6.67;100.00
818;BME280;391;51.052;6.954;2023-02-22T01:14:47;100796.44;;;6.94;100.00
818;BME280;391;51.052;6.954;2023-02-22T01:16:50;100796.50;;;6.96;100.00
818;BME280;391;51.052;6.954;2023-02-22T01:18:55;100802.72;;;6.99;100.00
818;BME280;391;51.052;6.954;2023-02-22T01:20:58;100800.06;;;6.98;100.00
818;BME280;391;51.052;6.954;2023-02-22T01:23:04;100796.59;;;6.97;100.00
818;BME280;391;51.052;6.954;2023-02-22T01:25:10;100791.63;;;7.02;100.00
818;BME280;391;51.052;6.954;2023-02-22T01:27:14;100797.66;;;7.02;100.00
818;BME280;391;51.052;6.954;2023-02-22T01:29:18;100747.00;;;6.70;100.00
818;BME280;391;51.052;6.954;2023-02-22T01:31:24;100787.03;;;6.96;100.00
818;BME280;391;51.052;6.954;2023-02-22T01:33:27;100785.19;;;6.93;100.00
818;BME280;391;51.052;6.954;2023-02-22T01:35:33;100782.59;;;6.93;100.00
818;BME280;391;51.052;6.954;2023-02-22T01:37:37;100772.91;;;6.89;100.00
818;BME280;391;51.052;6.954;2023-02-22T01:39:40;100774.50;;;6.86;100.00
818;BME280;391;51.052;6.954;2023-02-22T01:41:44;100777.91;;;6.85;100.00
818;BME280;391;51.052;6.954;2023-02-22T01:43:48;100754.59;;;6.66;100.00
818;BME280;391;51.052;6.954;2023-02-22T01:45:56;100743.25;;;6.64;100.00
818;BME280;391;51.052;6.954;2023-02-22T01:48:04;100772.72;;;6.85;100.00
818;BME280;391;51.052;6.954;2023-02-22T01:50:08;100770.19;;;6.86;100.00
818;BME280;391;51.052;6.954;2023-02-22T01:52:15;100731.94;;;6.81;100.00
818;BME280;391;51.052;6.954;2023-02-22T01:54:24;100763.38;;;7.08;100.00
818;BME280;391;51.052;6.954;2023-02-22T01:56:30;100765.13;;;7.09;100.00
818;BME280;391;51.052;6.954;2023-02-22T01:58:37;100764.38;;;7.11;100.00
818;BME280;391;51.052;6.954;2023-02-22T02:00:42;100754.75;;;7.09;100.00
818;BME280;391;51.052;6.954;2023-02-22T02:02:49;100759.63;;;7.01;100.00
818;BME280;391;51.052;6.954;2023-02-22T02:04:59;100753.41;;;6.98;100.00
818;BME280;391;51.052;6.954;2023-02-22T02:07:04;100716.91;;;6.72;100.00
818;BME280;391;51.052;6.954;2023-02-22T02:09:14;100750.75;;;6.96;100.00
818;BME280;391;51.052;6.954;2023-02-22T02:11:22;100748.16;;;6.96;100.00
818;BME280;391;51.052;6.954;2023-02-22T02:13:27;100715.34;;;6.76;100.00
818;BME280;391;51.052;6.954;2023-02-22T02:15:32;100750.88;;;6.99;100.00
818;BME280;391;51.052;6.954;2023-02-22T02:17:36;100742.38;;;7.02;100.00
818;BME280;391;51.052;6.954;2023-02-22T02:19:44;100743.03;;;6.98;100.00
818;BME280;391;51.052;6.954;2023-02-22T02:22:20;100748.50;;;7.04;100.00
818;BME280;391;51.052;6.954;2023-02-22T02:24:53;100745.09;;;7.05;100.00
818;BME280;391;51.052;6.954;2023-02-22T02:27:09;100734.31;;;6.96;100.00
818;BME280;391;51.052;6.954;2023-02-22T02:32:22;100738.38;;;6.89;100.00
818;BME280;391;51.052;6.954;2023-02-22T02:34:33;100732.16;;;6.85;100.00
818;BME280;391;51.052;6.954;2023-02-22T02:36:43;100734.03;;;6.89;100.00
818;BME280;391;51.052;6.954;2023-02-22T02:38:54;100728.00;;;6.89;100.00
818;BME280;391;51.052;6.954;2023-02-22T02:41:05;100699.53;;;6.70;100.00
818;BME280;391;51.052;6.954;2023-02-22T02:43:14;100728.47;;;6.80;100.00
818;BME280;391;51.052;6.954;2023-02-22T02:45:23;100730.03;;;6.77;100.00
818;BME280;391;51.052;6.954;2023-02-22T02:47:33;100729.91;;;6.74;100.00
818;BME280;391;51.052;6.954;2023-02-22T02:49:44;100724.53;;;6.69;100.00
818;BME280;391;51.052;6.954;2023-02-22T02:51:51;100724.94;;;6.78;100.00
818;BME280;391;51.052;6.954;2023-02-22T02:53:56;100698.69;;;6.71;100.00
818;BME280;391;51.052;6.954;2023-02-22T02:56:00;100708.75;;;6.84;100.00
818;BME280;391;51.052;6.954;2023-02-22T02:58:04;100698.34;;;6.82;100.00
818;BME280;391;51.052;6.954;2023-02-22T03:00:08;100717.50;;;6.86;100.00
818;BME280;391;51.052;6.954;2023-02-22T03:02:39;100716.22;;;6.76;100.00
818;BME280;391;51.052;6.954;2023-02-22T03:05:07;100718.38;;;6.67;100.00
818;BME280;391;51.052;6.954;2023-02-22T03:07:30;100685.63;;;6.49;100.00
818;BME280;391;51.052;6.954;2023-02-22T03:09:40;100712.53;;;6.71;100.00
818;BME280;391;51.052;6.954;2023-02-22T03:11:50;100718.84;;;6.78;100.00
818;BME280;391;51.052;6.954;2023-02-22T03:14:10;100716.22;;;6.76;100.00
818;BME280;391;51.052;6.954;2023-02-22T03:16:20;100718.72;;;6.75;100.00
818;BME280;391;51.052;6.954;2023-02-22T03:18:35;100723.66;;;6.69;100.00
818;BME280;391;51.052;6.954;2023-02-22T03:20:47;100717.34;;;6.64;100.00
818;BME280;391;51.052;6.954;2023-02-22T03:22:57;100703.19;;;6.56;100.00
818;BME280;391;51.052;6.954;2023-02-22T03:25:06;100717.84;;;6.74;100.00
818;BME280;391;51.052;6.954;2023-02-22T03:27:17;100715.78;;;6.86;100.00
818;BME280;391;51.052;6.954;2023-02-22T03:29:27;100716.03;;;6.92;100.00
818;BME280;391;51.052;6.954;2023-02-22T03:31:40;100713.00;;;6.82;100.00
818;BME280;391;51.052;6.954;2023-02-22T03:33:49;100700.25;;;6.67;100.00
818;BME280;391;51.052;6.954;2023-02-22T03:35:58;100711.63;;;6.71;100.00
818;BME280;391;51.052;6.954;2023-02-22T03:38:06;100692.44;;;6.66;100.00
818;BME280;391;51.052;6.954;2023-02-22T03:40:14;100711.09;;;6.78;100.00
818;BME280;391;51.052;6.954;2023-02-22T03:42:24;100714.31;;;6.93;100.00
818;BME280;391;51.052;6.954;2023-02-22T03:44:32;100710.03;;;6.93;100.00
818;BME280;391;51.052;6.954;2023-02-22T03:46:40;100664.63;;;6.62;100.00
818;BME280;391;51.052;6.954;2023-02-22T03:48:50;100701.34;;;6.72;100.00
818;BME280;391;51.052;6.954;2023-02-22T03:50:55;100703.94;;;6.72;100.00
818;BME280;391;51.052;6.954;2023-02-22T03:53:02;100708.88;;;6.87;100.00
818;BME280;391;51.052;6.954;2023-02-22T03:55:10;100694.34;;;6.90;100.00
818;BME280;391;51.052;6.954;2023-02-22T03:57:16;100700.06;;;7.03;100.00
818;BME280;391;51.052;6.954;2023-02-22T03:59:26;100707.69;;;7.00;100.00
818;BME280;391;51.052;6.954;2023-02-22T04:01:30;100711.25;;;7.02;100.00
818;BME280;391;51.052;6.954;2023-02-22T04:03:33;100712.97;;;7.01;100.00
818;BME280;391;51.052;6.954;2023-02-22T04:05:38;100708.75;;;6.84;100.00
818;BME280;391;51.052;6.954;2023-02-22T04:07:42;100704.56;;;6.67;100.00
818;BME280;391;51.052;6.954;2023-02-22T04:09:47;100708.91;;;6.68;100.00
818;BME280;391;51.052;6.954;2023-02-22T04:11:50;100701.81;;;6.64;100.00
818;BME280;391;51.052;6.954;2023-02-22T04:13:55;100709.03;;;6.71;100.00
818;BME280;391;51.052;6.954;2023-02-22T04:16:04;100712.41;;;6.68;100.00
818;BME280;391;51.052;6.954;2023-02-22T04:18:09;100713.69;;;6.59;100.00
818;BME280;391;51.052;6.954;2023-02-22T04:20:13;100705.78;;;6.56;100.00
818;BME280;391;51.052;6.954;2023-02-22T04:22:33;100708.03;;;6.48;100.00
818;BME280;391;51.052;6.954;2023-02-22T04:24:37;100661.44;;;6.29;100.00
818;BME280;391;51.052;6.954;2023-02-22T04:26:40;100710.81;;;6.72;100.00
818;BME280;391;51.052;6.954;2023-02-22T04:28:45;100705.00;;;6.77;100.00
818;BME280;391;51.052;6.954;2023-02-22T04:30:50;100703.19;;;6.75;99.75
818;BME280;391;51.052;6.954;2023-02-22T04:32:54;100704.13;;;6.58;99.92
818;BME280;391;51.052;6.954;2023-02-22T04:34:57;100703.75;;;6.49;100.00
818;BME280;391;51.052;6.954;2023-02-22T04:37:03;100705.25;;;6.44;100.00
818;BME280;391;51.052;6.954;2023-02-22T04:39:08;100705.13;;;6.41;100.00
818;BME280;391;51.052;6.954;2023-02-22T04:41:12;100698.91;;;6.37;99.86
818;BME280;391;51.052;6.954;2023-02-22T04:43:16;100642.78;;;6.17;99.97
818;BME280;391;51.052;6.954;2023-02-22T04:45:21;100645.31;;;6.15;99.92
818;BME280;391;51.052;6.954;2023-02-22T04:47:25;100693.13;;;6.43;100.00
818;BME280;391;51.052;6.954;2023-02-22T04:49:28;100694.81;;;6.42;100.00
818;BME280;391;51.052;6.954;2023-02-22T04:51:32;100689.44;;;6.37;100.00
818;BME280;391;51.052;6.954;2023-02-22T04:53:40;100689.59;;;6.41;100.00
818;BME280;391;51.052;6.954;2023-02-22T04:55:46;100697.88;;;6.53;100.00
818;BME280;391;51.052;6.954;2023-02-22T04:57:51;100696.81;;;6.67;100.00
818;BME280;391;51.052;6.954;2023-02-22T04:59:54;100690.72;;;6.66;99.61
818;BME280;391;51.052;6.954;2023-02-22T05:01:59;100690.03;;;6.51;99.86
818;BME280;391;51.052;6.954;2023-02-22T05:04:03;100694.41;;;6.33;99.70
818;BME280;391;51.052;6.954;2023-02-22T05:06:07;100688.28;;;6.31;99.80
818;BME280;391;51.052;6.954;2023-02-22T05:08:10;100686.09;;;6.21;99.87
818;BME280;391;51.052;6.954;2023-02-22T05:10:14;100680.38;;;6.09;100.00
818;BME280;391;51.052;6.954;2023-02-22T05:12:19;100675.13;;;6.07;99.89
818;BME280;391;51.052;6.954;2023-02-22T05:14:22;100688.13;;;6.09;100.00
818;BME280;391;51.052;6.954;2023-02-22T05:16:28;100686.09;;;6.02;100.00
818;BME280;391;51.052;6.954;2023-02-22T05:18:31;100683.41;;;6.00;100.00
818;BME280;391;51.052;6.954;2023-02-22T05:20:34;100668.44;;;5.93;100.00
818;BME280;391;51.052;6.954;2023-02-22T05:22:38;100680.63;;;5.96;100.00
818;BME280;391;51.052;6.954;2023-02-22T05:24:41;100675.03;;;5.87;100.00
818;BME280;391;51.052;6.954;2023-02-22T05:26:45;100674.03;;;5.84;100.00
818;BME280;391;51.052;6.954;2023-02-22T05:28:50;100672.59;;;5.90;100.00
818;BME280;391;51.052;6.954;2023-02-22T05:30:53;100667.97;;;5.84;100.00
818;BME280;391;51.052;6.954;2023-02-22T05:32:57;100671.16;;;5.78;100.00
818;BME280;391;51.052;6.954;2023-02-22T05:35:01;100664.75;;;5.70;100.00
818;BME280;391;51.052;6.954;2023-02-22T05:37:04;100632.28;;;5.40;100.00
818;BME280;391;51.052;6.954;2023-02-22T05:39:08;100657.84;;;5.52;100.00
818;BME280;391;51.052;6.954;2023-02-22T05:41:11;100622.00;;;5.24;100.00
818;BME280;391;51.052;6.954;2023-02-22T05:43:16;100657.97;;;5.37;100.00
818;BME280;391;51.052;6.954;2023-02-22T05:45:23;100654.06;;;5.45;100.00
818;BME280;391;51.052;6.954;2023-02-22T05:47:28;100653.97;;;5.44;100.00
818;BME280;391;51.052;6.954;2023-02-22T05:49:32;100648.63;;;5.39;100.00
818;BME280;391;51.052;6.954;2023-02-22T05:51:35;100592.50;;;5.01;100.00
818;BME280;391;51.052;6.954;2023-02-22T05:53:38;100641.13;;;5.27;100.00
818;BME280;391;51.052;6.954;2023-02-22T05:55:42;100644.91;;;5.34;100.00
818;BME280;391;51.052;6.954;2023-02-22T05:57:48;100648.38;;;5.34;100.00
818;BME280;391;51.052;6.954;2023-02-22T05:59:51;100638.09;;;5.36;100.00
818;BME280;391;51.052;6.954;2023-02-22T06:01:56;100632.59;;;5.28;100.00
818;BME280;391;51.052;6.954;2023-02-22T06:03:59;100634.72;;;5.19;100.00
818;BME280;391;51.052;6.954;2023-02-22T06:06:03;100631.31;;;5.20;100.00
818;BME280;391;51.052;6.954;2023-02-22T06:08:07;100598.34;;;4.97;100.00
818;BME280;391;51.052;6.954;2023-02-22T06:10:11;100630.53;;;5.04;100.00
818;BME280;391;51.052;6.954;2023-02-22T06:12:15;100624.16;;;4.97;100.00
818;BME280;391;51.052;6.954;2023-02-22T06:14:18;100636.19;;;4.97;100.00
818;BME280;391;51.052;6.954;2023-02-22T06:16:21;100635.53;;;5.01;100.00
818;BME280;391;51.052;6.954;2023-02-22T06:18:27;100627.78;;;5.01;100.00
818;BME280;391;51.052;6.954;2023-02-22T06:20:32;100625.72;;;4.94;100.00
818;BME280;391;51.052;6.954;2023-02-22T06:22:36;100631.69;;;4.93;100.00
818;BME280;391;51.052;6.954;2023-02-22T06:24:42;100628.19;;;4.92;100.00
818;BME280;391;51.052;6.954;2023-02-22T06:26:45;100618.84;;;4.94;100.00
818;BME280;391;51.052;6.954;2023-02-22T06:28:49;100626.69;;;5.13;100.00
818;BME280;391;51.052;6.954;2023-02-22T06:30:52;100626.63;;;5.29;100.00
818;BME280;391;51.052;6.954;2023-02-22T06:32:56;100627.09;;;5.40;100.00
818;BME280;391;51.052;6.954;2023-02-22T06:35:01;100628.66;;;5.54;100.00
818;BME280;391;51.052;6.954;2023-02-22T06:37:04;100631.72;;;5.65;100.00
818;BME280;391;51.052;6.954;2023-02-22T06:39:07;100631.94;;;5.69;99.63
818;BME280;391;51.052;6.954;2023-02-22T06:41:12;100636.34;;;5.72;99.63
818;BME280;391;51.052;6.954;2023-02-22T06:43:17;100636.50;;;5.75;99.02
818;BME280;391;51.052;6.954;2023-02-22T06:45:20;100588.03;;;5.52;99.10
818;BME280;391;51.052;6.954;2023-02-22T06:47:25;100585.78;;;5.59;99.53
818;BME280;391;51.052;6.954;2023-02-22T06:49:28;100615.41;;;5.85;99.23
818;BME280;391;51.052;6.954;2023-02-22T06:51:36;100626.69;;;6.05;99.18
818;BME280;391;51.052;6.954;2023-02-22T06:53:39;100628.41;;;6.04;99.05
818;BME280;391;51.052;6.954;2023-02-22T06:55:43;100625.13;;;6.08;98.66
818;BME280;391;51.052;6.954;2023-02-22T06:57:46;100620.00;;;6.10;98.92
818;BME280;391;51.052;6.954;2023-02-22T06:59:49;100623.72;;;6.15;98.78
818;BME280;391;51.052;6.954;2023-02-22T07:01:53;100622.97;;;6.17;98.40
818;BME280;391;51.052;6.954;2023-02-22T07:03:56;100619.56;;;6.18;98.38
818;BME280;391;51.052;6.954;2023-02-22T07:06:00;100613.69;;;6.22;98.55
818;BME280;391;51.052;6.954;2023-02-22T07:08:07;100619.56;;;6.18;98.21
818;BME280;391;51.052;6.954;2023-02-22T07:10:16;100612.59;;;6.17;98.33
818;BME280;391;51.052;6.954;2023-02-22T07:12:20;100626.09;;;7.11;100.00
818;BME280;391;51.052;6.954;2023-02-22T07:14:23;100626.34;;;8.06;100.00
818;BME280;391;51.052;6.954;2023-02-22T07:16:27;100623.00;;;8.56;100.00
818;BME280;391;51.052;6.954;2023-02-22T07:18:30;100631.84;;;8.37;100.00
818;BME280;391;51.052;6.954;2023-02-22T07:20:33;100625.56;;;8.08;100.00
818;BME280;391;51.052;6.954;2023-02-22T07:22:37;100582.94;;;7.56;99.39
818;BME280;391;51.052;6.954;2023-02-22T07:24:42;100627.28;;;7.62;99.27
818;BME280;391;51.052;6.954;2023-02-22T07:26:45;100623.22;;;7.46;98.99
818;BME280;391;51.052;6.954;2023-02-22T07:28:49;100611.47;;;7.33;98.91
818;BME280;391;51.052;6.954;2023-02-22T07:30:52;100602.38;;;7.22;98.43
818;BME280;391;51.052;6.954;2023-02-22T07:32:58;100613.63;;;7.23;98.75
818;BME280;391;51.052;6.954;2023-02-22T07:35:02;100615.56;;;7.28;98.30
818;BME280;391;51.052;6.954;2023-02-22T07:37:05;100619.81;;;7.26;98.25
818;BME280;391;51.052;6.954;2023-02-22T07:39:08;100615.53;;;7.27;98.02
818;BME280;391;51.052;6.954;2023-02-22T07:41:13;100609.25;;;7.22;98.29
818;BME280;391;51.052;6.954;2023-02-22T07:43:19;100613.06;;;7.30;97.80
818;BME280;391;51.052;6.954;2023-02-22T07:45:25;100613.06;;;7.30;98.15
818;BME280;391;51.052;6.954;2023-02-22T07:47:29;100617.72;;;7.38;97.80
818;BME280;391;51.052;6.954;2023-02-22T07:49:32;100618.59;;;7.39;97.94
818;BME280;391;51.052;6.954;2023-02-22T07:51:36;100572.69;;;7.14;97.88
818;BME280;391;51.052;6.954;2023-02-22T07:53:39;100613.72;;;7.47;97.89
818;BME280;391;51.052;6.954;2023-02-22T07:55:43;100597.19;;;7.44;97.75
818;BME280;391;51.052;6.954;2023-02-22T07:57:50;100609.81;;;7.58;97.51
818;BME280;391;51.052;6.954;2023-02-22T07:59:54;100601.00;;;7.53;97.12
818;BME280;391;51.052;6.954;2023-02-22T08:01:58;100602.38;;;7.44;97.71
818;BME280;391;51.052;6.954;2023-02-22T08:04:02;100605.63;;;7.39;97.61
818;BME280;391;51.052;6.954;2023-02-22T08:06:06;100574.41;;;7.15;97.57
818;BME280;391;51.052;6.954;2023-02-22T08:08:10;100595.19;;;7.37;97.92
818;BME280;391;51.052;6.954;2023-02-22T08:10:17;100592.81;;;7.43;98.17
818;BME280;391;51.052;6.954;2023-02-22T08:12:21;100594.03;;;7.52;98.05
818;BME280;391;51.052;6.954;2023-02-22T08:14:26;100596.53;;;7.50;97.71
818;BME280;391;51.052;6.954;2023-02-22T08:16:29;100598.31;;;7.51;97.60
818;BME280;391;51.052;6.954;2023-02-22T08:18:33;100594.03;;;7.52;97.75
818;BME280;391;51.052;6.954;2023-02-22T08:20:40;100590.38;;;7.47;97.81
818;BME280;391;51.052;6.954;2023-02-22T08:22:45;100573.50;;;7.35;97.78
818;BME280;391;51.052;6.954;2023-02-22T08:24:48;100593.66;;;7.42;97.76
818;BME280;391;51.052;6.954;2023-02-22T08:26:55;100593.91;;;7.49;97.72
818;BME280;391;51.052;6.954;2023-02-22T08:28:58;100589.66;;;7.51;97.78
818;BME280;391;51.052;6.954;2023-02-22T08:31:03;100580.94;;;7.49;97.61
818;BME280;391;51.052;6.954;2023-02-22T08:33:09;100583.66;;;7.52;97.49
818;BME280;391;51.052;6.954;2023-02-22T08:35:17;100592.53;;;7.58;97.25
818;BME280;391;51.052;6.954;2023-02-22T08:37:21;100559.41;;;7.51;97.39
818;BME280;391;51.052;6.954;2023-02-22T08:39:24;100582.94;;;7.78;97.18
818;BME280;391;51.052;6.954;2023-02-22T08:41:27;100580.69;;;7.88;97.23
818;BME280;391;51.052;6.954;2023-02-22T08:43:31;100581.81;;;7.95;96.97
818;BME280;391;51.052;6.954;2023-02-22T08:45:34;100562.38;;;7.84;97.00
818;BME280;391;51.052;6.954;2023-02-22T08:47:40;100576.25;;;8.08;96.76
818;BME280;391;51.052;6.954;2023-02-22T08:49:44;100565.94;;;8.10;96.15
818;BME280;391;51.052;6.954;2023-02-22T08:51:47;100574.66;;;8.12;96.00
818;BME280;391;51.052;6.954;2023-02-22T08:53:53;100566.81;;;8.10;95.73
818;BME280;391;51.052;6.954;2023-02-22T08:55:56;100574.06;;;8.20;95.95
818;BME280;391;51.052;6.954;2023-02-22T08:58:00;100569.00;;;8.23;95.29
818;BME280;391;51.052;6.954;2023-02-22T09:00:06;100563.94;;;8.26;95.38
818;BME280;391;51.052;6.954;2023-02-22T09:02:13;100557.31;;;8.34;95.10
818;BME280;391;51.052;6.954;2023-02-22T09:04:19;100564.41;;;8.40;94.98
818;BME280;391;51.052;6.954;2023-02-22T09:06:23;100562.13;;;8.49;95.08
818;BME280;391;51.052;6.954;2023-02-22T09:08:26;100568.59;;;8.60;94.68
818;BME280;391;51.052;6.954;2023-02-22T09:10:31;100532.72;;;8.50;94.31
818;BME280;391;51.052;6.954;2023-02-22T09:12:35;100560.38;;;8.73;94.50
818;BME280;391;51.052;6.954;2023-02-22T09:14:38;100539.63;;;8.75;94.03
818;BME280;391;51.052;6.954;2023-02-22T09:16:44;100546.84;;;8.83;93.47
818;BME280;391;51.052;6.954;2023-02-22T09:18:47;100551.16;;;8.83;92.93
818;BME280;391;51.052;6.954;2023-02-22T09:20:52;100548.41;;;8.78;92.51
818;BME280;391;51.052;6.954;2023-02-22T09:22:56;100545.88;;;8.80;91.90
818;BME280;391;51.052;6.954;2023-02-22T09:25:00;100513.41;;;8.67;92.49
818;BME280;391;51.052;6.954;2023-02-22T09:27:17;100526.97;;;8.85;91.61
818;BME280;391;51.052;6.954;2023-02-22T09:29:22;100558.84;;;9.07;91.69
818;BME280;391;51.052;6.954;2023-02-22T09:31:27;100558.94;;;9.10;91.40
818;BME280;391;51.052;6.954;2023-02-22T09:33:30;100560.63;;;9.08;90.75
818;BME280;391;51.052;6.954;2023-02-22T09:35:34;100568.41;;;9.06;90.61
818;BME280;391;51.052;6.954;2023-02-22T09:37:40;100559.75;;;9.07;90.15
818;BME280;391;51.052;6.954;2023-02-22T09:39:46;100552.19;;;9.15;90.39
818;BME280;391;51.052;6.954;2023-02-22T09:41:55;100522.50;;;9.08;90.44
818;BME280;391;51.052;6.954;2023-02-22T09:44:10;100538.09;;;9.08;89.91
818;BME280;391;51.052;6.954;2023-02-22T09:46:25;100558.59;;;9.26;89.33
818;BME280;391;51.052;6.954;2023-02-22T09:48:33;100508.38;;;9.00;89.15
818;BME280;391;51.052;6.954;2023-02-22T09:50:41;100557.06;;;9.32;89.09
818;BME280;391;51.052;6.954;2023-02-22T09:52:52;100548.53;;;9.36;89.23
818;BME280;391;51.052;6.954;2023-02-22T09:55:05;100564.38;;;9.44;88.67
818;BME280;391;51.052;6.954;2023-02-22T09:57:13;100568.88;;;9.49;89.05
818;BME280;391;51.052;6.954;2023-02-22T09:59:22;100564.41;;;9.45;88.22
818;BME280;391;51.052;6.954;2023-02-22T10:01:29;100564.59;;;9.51;88.75
818;BME280;391;51.052;6.954;2023-02-22T10:03:44;100559.25;;;9.75;88.03
818;BME280;391;51.052;6.954;2023-02-22T10:05:54;100560.25;;;9.80;87.22
818;BME280;391;51.052;6.954;2023-02-22T10:08:04;100544.75;;;9.85;86.96
818;BME280;391;51.052;6.954;2023-02-22T10:10:14;100556.41;;;9.97;86.58
818;BME280;391;51.052;6.954;2023-02-22T10:12:27;100543.56;;;10.03;86.71
818;BME280;391;51.052;6.954;2023-02-22T10:14:46;100552.63;;;10.16;85.70
818;BME280;391;51.052;6.954;2023-02-22T10:16:55;100549.50;;;10.29;85.76
818;BME280;391;51.052;6.954;2023-02-22T10:19:15;100545.34;;;10.36;85.14
818;BME280;391;51.052;6.954;2023-02-22T10:21:34;100554.44;;;10.51;84.56
818;BME280;391;51.052;6.954;2023-02-22T10:23:52;100554.06;;;10.71;84.70
818;BME280;391;51.052;6.954;2023-02-22T10:26:06;100505.34;;;10.68;84.03
818;BME280;391;51.052;6.954;2023-02-22T10:28:18;100542.56;;;10.97;83.96
818;BME280;391;51.052;6.954;2023-02-22T10:30:26;100538.44;;;11.06;83.17
818;BME280;391;51.052;6.954;2023-02-22T10:32:41;100534.25;;;11.13;82.92
818;BME280;391;51.052;6.954;2023-02-22T10:34:48;100500.88;;;11.00;82.55
818;BME280;391;51.052;6.954;2023-02-22T10:36:58;100534.31;;;11.16;82.30
818;BME280;391;51.052;6.954;2023-02-22T10:39:12;100531.06;;;11.26;81.75
818;BME280;391;51.052;6.954;2023-02-22T10:41:26;100529.56;;;11.37;81.33
818;BME280;391;51.052;6.954;2023-02-22T10:43:31;100521.22;;;11.53;80.84
818;BME280;391;51.052;6.954;2023-02-22T10:45:35;100524.34;;;11.76;80.85
818;BME280;391;51.052;6.954;2023-02-22T10:47:43;100510.53;;;11.82;79.55
818;BME280;391;51.052;6.954;2023-02-22T10:49:50;100517.75;;;11.93;78.31
818;BME280;391;51.052;6.954;2023-02-22T10:51:59;100525.75;;;12.02;77.89
818;BME280;391;51.052;6.954;2023-02-22T10:54:20;100505.75;;;12.04;nan
818;BME280;391;51.052;6.954;2023-02-22T10:56:26;100294.56;;;10.88;76.63
818;BME280;391;51.052;6.954;2023-02-22T10:58:39;100508.84;;;12.30;75.48
818;BME280;391;51.052;6.954;2023-02-22T11:00:43;100513.25;;;12.33;75.47
818;BME280;391;51.052;6.954;2023-02-22T11:02:52;100518.09;;;12.59;75.30
818;BME280;391;51.052;6.954;2023-02-22T11:04:58;100510.34;;;12.67;73.54
818;BME280;391;51.052;6.954;2023-02-22T11:07:08;100505.34;;;12.81;74.07
818;BME280;391;51.052;6.954;2023-02-22T11:09:14;100496.94;;;12.98;72.86
818;BME280;391;51.052;6.954;2023-02-22T11:11:23;100499.03;;;13.20;72.74
818;BME280;391;51.052;6.954;2023-02-22T11:13:30;100491.34;;;13.33;71.58
818;BME280;391;51.052;6.954;2023-02-22T11:15:34;100475.81;;;13.46;71.20
818;BME280;391;51.052;6.954;2023-02-22T11:17:38;100512.09;;;13.84;70.34
818;BME280;391;51.052;6.954;2023-02-22T11:19:45;100505.25;;;13.96;69.27
818;BME280;391;51.052;6.954;2023-02-22T11:21:51;100504.34;;;13.96;68.60
818;BME280;391;51.052;6.954;2023-02-22T11:24:01;100510.47;;;13.98;68.05
818;BME280;391;51.052;6.954;2023-02-22T11:26:09;100513.91;;;13.92;68.18
818;BME280;391;51.052;6.954;2023-02-22T11:28:19;100508.53;;;13.82;66.72
818;BME280;391;51.052;6.954;2023-02-22T11:30:32;100497.88;;;13.65;66.96
818;BME280;391;51.052;6.954;2023-02-22T11:32:43;100474.00;;;13.42;66.61
818;BME280;391;51.052;6.954;2023-02-22T11:34:48;100466.19;;;13.47;65.73
818;BME280;391;51.052;6.954;2023-02-22T11:37:18;100489.09;;;13.61;65.73
818;BME280;391;51.052;6.954;2023-02-22T11:39:31;100452.19;;;13.42;65.56
818;BME280;391;51.052;6.954;2023-02-22T11:41:37;100487.41;;;13.66;65.22
818;BME280;391;51.052;6.954;2023-02-22T11:43:41;100486.88;;;13.96;65.85
818;BME280;391;51.052;6.954;2023-02-22T11:45:58;100481.72;;;14.02;64.49